Aérodrome :
LOGIN :

S'inscrire | Disclaimer

   EN    FR    IT 

 










Légende :    VFR   VFR Marginal   IFR   IFR Intensif   IFR Très Intensif
Visi : 
Plafond : 
>= 8 km
>= 3000ft
5 à 8 km
1000 à 3000 ft
1500m à 5 km
500 à 1000 ft
800 à 1500m
200 à 500 ft
< 800m
< 200 ft
Symboles :   Orages  Brouillard  Fortes neiges  Fortes précipitations  Vent > 20 kt
SIGMETs :   Divers  Orages  Givrage  Turbulence  Onde Orograph.  Cendres Volcan.






- Altitude de l'aérodrome : 1161 ft
- Code IATA : RJL


LELO - Logroño-Agoncillo

DERNIER METAR :
  • 220130Z AUTO VRB02KT 9999 NCD 06/05 Q1020

METARs EXPIRÉS :
  • 220100Z AUTO VRB01KT 9999 NCD 05/05 Q1020
  • 220030Z AUTO VRB02KT 9000 NCD 05/05 Q1020
  • 220000Z AUTO 00000KT 9999 NCD 06/06 Q1020
  • 212330Z AUTO VRB02KT 9999 NCD ///// Q1020
  • 212300Z AUTO 00000KT 9999 NCD 07/06 Q1020

TAF TAF LELO
Valide du 21 à 18h jusqu'au 22 à 03h UTC


211700Z 2118/2203 VRB05KT 9999 FEW035
PROB40
TEMPO 2118/2120 FEW040TCU
PROB30
TEMPO 2123/2203 2500 BR



MET'MAP, la Météo Aéronautique d'un coup d'oeil ! - Copyright ORBIFLY Décembre 2007 - Disclaimer

ORBIFLY MET'MAP TEAM :

Programmation & Développement : Alexandra Zaïnal
Conception & Développement : Baudouin d'Aumeries
Co-Programmation & Développement : Marc-Olivier Méhu
Soutien technique & logistique : Manuel Goepfert

Contact : metmap@orbifly.com




SOURCES & CREDITS :

   NOAA